createdAt,value
2023-01-12T00:01:51.774Z,6.00
2023-01-12T00:04:18.778Z,6.06
2023-01-12T00:06:45.676Z,5.97
2023-01-12T00:09:12.791Z,5.96
2023-01-12T00:11:40.333Z,5.86
2023-01-12T00:14:08.725Z,5.93
2023-01-12T00:16:37.703Z,5.89
2023-01-12T00:19:18.666Z,5.86
2023-01-12T00:22:04.336Z,5.79
2023-01-12T00:24:39.270Z,5.76
2023-01-12T00:27:09.877Z,5.79
2023-01-12T00:29:37.158Z,5.93
2023-01-12T00:32:05.728Z,5.87
2023-01-12T00:34:32.426Z,5.91
2023-01-12T00:37:01.474Z,5.87
2023-01-12T00:39:28.111Z,5.84
2023-01-12T00:42:13.474Z,5.86
2023-01-12T00:44:58.986Z,5.82
2023-01-12T00:47:25.675Z,5.85
2023-01-12T00:49:53.149Z,5.91
2023-01-12T00:52:30.469Z,5.89
2023-01-12T00:54:59.206Z,5.99
2023-01-12T00:57:26.530Z,5.99
2023-01-12T00:59:57.979Z,5.89
2023-01-12T01:02:24.985Z,5.82
2023-01-12T01:04:51.810Z,5.88
2023-01-12T01:07:21.484Z,5.92
2023-01-12T01:09:48.513Z,5.97
2023-01-12T01:12:15.240Z,6.01
2023-01-12T01:14:41.914Z,6.01
2023-01-12T01:17:08.722Z,6.07
2023-01-12T01:19:36.808Z,6.06
2023-01-12T01:22:03.791Z,6.07
2023-01-12T01:24:30.473Z,6.06
2023-01-12T01:26:57.254Z,6.01
2023-01-12T01:29:23.891Z,5.97
2023-01-12T01:31:50.597Z,5.94
2023-01-12T01:34:17.932Z,5.92
2023-01-12T01:36:44.602Z,5.77
2023-01-12T01:39:11.299Z,5.78
2023-01-12T01:41:37.953Z,5.80
2023-01-12T01:44:49.718Z,5.78
2023-01-12T01:47:28.332Z,5.70
2023-01-12T01:49:57.628Z,5.71
2023-01-12T01:52:30.112Z,5.68
2023-01-12T01:55:03.140Z,5.66
2023-01-12T01:57:48.658Z,5.64
2023-01-12T02:00:15.998Z,5.69
2023-01-12T02:02:46.128Z,5.63
2023-01-12T02:05:18.713Z,5.59
2023-01-12T02:07:45.307Z,5.57
2023-01-12T02:10:12.127Z,5.58
2023-01-12T02:12:57.876Z,5.63
2023-01-12T02:15:47.194Z,5.68
2023-01-12T02:18:32.663Z,5.54
2023-01-12T02:21:27.854Z,5.51
2023-01-12T02:24:17.342Z,5.48
2023-01-12T02:27:15.088Z,5.60
2023-01-12T02:30:29.232Z,5.57
2023-01-12T02:33:47.198Z,5.48
2023-01-12T02:36:42.746Z,5.44
2023-01-12T02:39:26.415Z,5.42
2023-01-12T02:42:25.203Z,5.41
2023-01-12T02:45:00.472Z,5.35
2023-01-12T02:48:23.961Z,5.38
2023-01-12T02:51:25.331Z,5.37
2023-01-12T02:53:55.306Z,5.40
2023-01-12T02:56:35.373Z,5.40
2023-01-12T02:59:11.639Z,5.42
2023-01-12T03:01:41.146Z,5.39
2023-01-12T03:04:10.902Z,5.42
2023-01-12T03:06:42.773Z,5.40
2023-01-12T03:09:10.108Z,5.37
2023-01-12T03:11:40.600Z,5.39
2023-01-12T03:14:09.769Z,5.37
2023-01-12T03:16:39.142Z,5.34
2023-01-12T03:19:09.901Z,5.30
2023-01-12T03:21:59.118Z,5.23
2023-01-12T03:24:30.713Z,5.19
2023-01-12T03:27:06.213Z,5.20
2023-01-12T03:29:41.477Z,5.16
2023-01-12T03:32:08.438Z,5.07
2023-01-12T03:34:36.465Z,4.98
2023-01-12T03:37:37.872Z,4.92
2023-01-12T03:40:15.119Z,4.87
2023-01-12T03:42:49.032Z,4.88
2023-01-12T03:45:50.956Z,4.86
2023-01-12T03:48:49.989Z,4.82
2023-01-12T03:51:29.530Z,4.75
2023-01-12T03:53:57.642Z,4.80
2023-01-12T03:56:28.668Z,4.85
2023-01-12T03:58:55.731Z,4.79
2023-01-12T04:01:22.571Z,4.86
2023-01-12T04:03:49.337Z,4.87
2023-01-12T04:06:15.978Z,4.90
2023-01-12T04:08:42.650Z,4.95
2023-01-12T04:11:29.520Z,4.96
2023-01-12T04:13:56.224Z,5.00
2023-01-12T04:16:22.924Z,5.05
2023-01-12T04:18:49.554Z,4.98
2023-01-12T04:21:34.535Z,4.96
2023-01-12T04:24:01.183Z,4.85
2023-01-12T04:26:27.874Z,4.82
2023-01-12T04:28:54.559Z,4.82
2023-01-12T04:31:21.244Z,4.80
2023-01-12T04:33:47.889Z,4.76
2023-01-12T04:36:15.510Z,4.74
2023-01-12T04:38:42.329Z,4.74
2023-01-12T04:41:09.376Z,4.71
2023-01-12T04:43:36.083Z,4.64
2023-01-12T04:46:07.951Z,4.55
2023-01-12T04:48:34.696Z,4.55
2023-01-12T04:51:02.557Z,4.55
2023-01-12T04:53:29.682Z,4.51
2023-01-12T04:55:57.119Z,4.49
2023-01-12T04:58:24.209Z,4.47
2023-01-12T05:00:50.985Z,4.31
2023-01-12T05:03:17.755Z,4.26
2023-01-12T05:05:44.473Z,4.26
2023-01-12T05:08:31.311Z,4.16
2023-01-12T05:11:00.661Z,4.14
2023-01-12T05:13:30.550Z,4.06
2023-01-12T05:15:57.339Z,3.99
2023-01-12T05:18:24.063Z,3.94
2023-01-12T05:20:50.713Z,3.95
2023-01-12T05:23:17.345Z,3.91
2023-01-12T05:25:44.032Z,4.00
2023-01-12T05:28:10.729Z,3.96
2023-01-12T05:30:37.368Z,3.96
2023-01-12T05:33:04.136Z,4.00
2023-01-12T05:35:30.733Z,3.99
2023-01-12T05:37:57.600Z,3.94
2023-01-12T05:40:24.974Z,3.88
2023-01-12T05:43:10.388Z,3.96
2023-01-12T05:45:37.252Z,3.95
2023-01-12T05:48:04.466Z,3.89
2023-01-12T05:50:31.104Z,3.93
2023-01-12T05:52:57.789Z,3.88
2023-01-12T05:55:24.482Z,3.87
2023-01-12T05:57:51.085Z,3.84
2023-01-12T06:00:18.662Z,3.84
2023-01-12T06:02:45.284Z,3.89
2023-01-12T06:05:11.957Z,3.91
2023-01-12T06:07:38.824Z,4.06
2023-01-12T06:10:06.130Z,4.00
2023-01-12T06:12:51.252Z,4.13
2023-01-12T06:15:17.859Z,4.12
2023-01-12T06:17:44.462Z,4.19
2023-01-12T06:20:14.940Z,4.21
2023-01-12T06:22:41.635Z,4.24
2023-01-12T06:25:08.991Z,4.27
2023-01-12T06:27:36.016Z,4.29
2023-01-12T06:30:02.654Z,4.32
2023-01-12T06:32:29.866Z,4.38
2023-01-12T06:35:01.611Z,4.38
2023-01-12T06:37:33.585Z,4.39
2023-01-12T06:40:00.311Z,4.34
2023-01-12T06:42:29.893Z,4.33
2023-01-12T06:44:57.874Z,4.33
2023-01-12T06:47:25.130Z,4.29
2023-01-12T06:49:52.226Z,4.28
2023-01-12T06:52:20.884Z,4.23
2023-01-12T06:54:47.762Z,4.18
2023-01-12T06:57:15.003Z,4.19
2023-01-12T06:59:42.147Z,4.17
2023-01-12T07:02:14.102Z,4.16
2023-01-12T07:04:41.897Z,4.17
2023-01-12T07:07:10.216Z,4.15
2023-01-12T07:09:37.311Z,4.10
2023-01-12T07:12:04.854Z,4.12
2023-01-12T07:14:31.537Z,4.17
2023-01-12T07:16:58.195Z,4.12
2023-01-12T07:19:24.941Z,4.07
2023-01-12T07:21:51.558Z,4.05
2023-01-12T07:24:18.259Z,4.04
2023-01-12T07:26:47.741Z,4.08
2023-01-12T07:29:14.350Z,4.13
2023-01-12T07:31:41.006Z,4.17
2023-01-12T07:34:07.733Z,4.19
2023-01-12T07:36:34.366Z,4.25
2023-01-12T07:39:01.327Z,4.29
2023-01-12T07:41:46.553Z,4.38
2023-01-12T07:44:13.235Z,4.41
2023-01-12T07:46:39.904Z,4.45
2023-01-12T07:49:06.536Z,4.46
2023-01-12T07:51:33.475Z,4.57
2023-01-12T07:54:00.226Z,4.67
2023-01-12T07:56:26.946Z,4.74
2023-01-12T07:58:53.638Z,4.76
2023-01-12T08:01:20.346Z,4.85
2023-01-12T08:03:47.478Z,4.82
2023-01-12T08:06:14.212Z,4.80
2023-01-12T08:08:41.415Z,4.81
2023-01-12T08:11:10.166Z,4.77
2023-01-12T08:13:37.923Z,4.77
2023-01-12T08:16:16.246Z,4.89
2023-01-12T08:19:08.061Z,4.89
2023-01-12T08:21:47.447Z,4.95
2023-01-12T08:24:18.016Z,4.99
2023-01-12T08:26:48.736Z,5.03
2023-01-12T08:29:21.020Z,5.11
2023-01-12T08:31:47.785Z,5.18
2023-01-12T08:34:14.495Z,5.23
2023-01-12T08:36:44.324Z,5.23
2023-01-12T08:39:11.477Z,5.25
2023-01-12T08:41:38.097Z,5.32
2023-01-12T08:44:10.796Z,5.34
2023-01-12T08:46:53.932Z,5.38
2023-01-12T08:49:26.969Z,5.42
2023-01-12T08:51:53.830Z,5.46
2023-01-12T08:54:21.906Z,5.50
2023-01-12T08:56:49.422Z,5.56
2023-01-12T08:59:16.526Z,5.69
2023-01-12T09:01:43.524Z,5.75
2023-01-12T09:04:10.446Z,5.80
2023-01-12T09:06:43.005Z,5.84
2023-01-12T09:09:10.650Z,5.87
2023-01-12T09:11:39.344Z,5.93
2023-01-12T09:14:06.420Z,5.92
2023-01-12T09:16:33.860Z,5.97
2023-01-12T09:19:00.950Z,5.98
2023-01-12T09:21:28.865Z,6.02
2023-01-12T09:23:55.863Z,6.09
2023-01-12T09:26:33.904Z,6.16
2023-01-12T09:29:02.353Z,6.17
2023-01-12T09:31:30.734Z,6.17
2023-01-12T09:33:57.967Z,6.13
2023-01-12T09:36:27.230Z,6.09
2023-01-12T09:38:54.308Z,6.05
2023-01-12T09:41:59.483Z,6.13
2023-01-12T09:44:50.675Z,6.06
2023-01-12T09:47:44.797Z,5.97
2023-01-12T09:50:20.421Z,5.95
2023-01-12T09:53:00.032Z,5.94
2023-01-12T09:55:31.671Z,5.97
2023-01-12T09:58:37.091Z,5.99
2023-01-12T10:01:20.439Z,6.01
2023-01-12T10:03:55.637Z,6.09
2023-01-12T10:06:22.468Z,6.15
2023-01-12T10:09:00.983Z,6.29
2023-01-12T10:11:48.680Z,6.47
2023-01-12T10:15:12.129Z,6.64
2023-01-12T10:18:04.255Z,6.63
2023-01-12T10:20:38.513Z,6.63
2023-01-12T10:23:26.737Z,6.79
2023-01-12T10:26:19.659Z,6.78
2023-01-12T10:28:46.936Z,6.86
2023-01-12T10:31:20.649Z,6.89
2023-01-12T10:34:10.093Z,6.94
2023-01-12T10:36:43.318Z,7.02
2023-01-12T10:39:35.122Z,6.90
2023-01-12T10:42:55.769Z,6.79
2023-01-12T10:45:24.586Z,6.88
2023-01-12T10:47:56.887Z,6.76
2023-01-12T10:50:32.771Z,6.79
2023-01-12T10:53:06.124Z,6.84
2023-01-12T10:55:39.737Z,6.91
2023-01-12T10:58:20.289Z,6.83
2023-01-12T11:00:48.809Z,6.83
2023-01-12T11:03:39.402Z,6.82
2023-01-12T11:06:28.121Z,6.89
2023-01-12T11:08:55.590Z,6.91
2023-01-12T11:11:31.226Z,7.06
2023-01-12T11:14:02.756Z,7.08
2023-01-12T11:16:44.023Z,7.19
2023-01-12T11:19:21.879Z,7.41
2023-01-12T11:21:57.302Z,7.46
2023-01-12T11:25:08.764Z,7.52
2023-01-12T11:27:47.025Z,7.46
2023-01-12T11:30:23.236Z,7.54
2023-01-12T11:33:28.513Z,7.54
2023-01-12T11:36:03.138Z,7.47
2023-01-12T11:38:43.808Z,7.60
2023-01-12T11:41:25.527Z,7.65
2023-01-12T11:44:19.287Z,7.61
2023-01-12T11:46:52.109Z,7.69
2023-01-12T11:49:34.374Z,7.70
2023-01-12T11:52:02.899Z,7.72
2023-01-12T11:54:31.759Z,7.76
2023-01-12T11:57:25.515Z,7.81
2023-01-12T12:00:34.668Z,7.84
2023-01-12T12:03:31.337Z,7.82
2023-01-12T12:06:35.381Z,7.81
2023-01-12T12:09:31.967Z,7.80
2023-01-12T12:12:55.650Z,7.71
2023-01-12T12:15:56.788Z,7.68
2023-01-12T12:19:10.072Z,7.65
2023-01-12T12:21:48.844Z,7.63
2023-01-12T12:25:07.891Z,7.60
2023-01-12T12:27:58.619Z,7.58
2023-01-12T12:31:05.320Z,7.57
2023-01-12T12:34:22.538Z,7.56
2023-01-12T12:37:34.434Z,7.58
2023-01-12T12:40:16.469Z,7.56
2023-01-12T12:43:16.329Z,7.56
2023-01-12T12:46:11.437Z,7.52
2023-01-12T12:49:01.316Z,7.53
2023-01-12T12:51:30.814Z,7.54
2023-01-12T12:53:58.581Z,7.55
2023-01-12T12:56:26.904Z,7.55
2023-01-12T12:58:55.727Z,7.54
2023-01-12T13:01:36.615Z,7.51
2023-01-12T13:04:05.542Z,7.51
2023-01-12T13:06:34.997Z,7.50
2023-01-12T13:09:23.272Z,7.48
2023-01-12T13:12:20.963Z,7.41
2023-01-12T13:15:24.602Z,7.36
2023-01-12T13:17:53.375Z,7.35
2023-01-12T13:20:50.796Z,7.36
2023-01-12T13:23:49.063Z,7.36
2023-01-12T13:26:34.998Z,7.31
2023-01-12T13:29:38.641Z,7.39
2023-01-12T13:32:23.319Z,7.34
2023-01-12T13:34:52.874Z,7.34
2023-01-12T13:37:33.196Z,7.32
2023-01-12T13:40:20.397Z,7.22
2023-01-12T13:43:07.798Z,7.23
2023-01-12T13:45:36.634Z,7.22
2023-01-12T13:48:06.384Z,7.17
2023-01-12T13:50:35.571Z,7.09
2023-01-12T13:53:04.433Z,7.02
2023-01-12T13:55:33.014Z,6.94
2023-01-12T13:58:18.358Z,6.92
2023-01-12T14:01:00.667Z,6.89
2023-01-12T14:04:34.809Z,6.81
2023-01-12T14:07:42.434Z,6.88
2023-01-12T14:10:47.439Z,6.89
2023-01-12T14:13:52.103Z,6.87
2023-01-12T14:16:37.335Z,6.88
2023-01-12T14:19:26.006Z,6.93
2023-01-12T14:22:00.057Z,7.01
2023-01-12T14:24:26.764Z,6.86
2023-01-12T14:26:53.422Z,6.87
2023-01-12T14:29:20.273Z,6.90
2023-01-12T14:31:49.860Z,6.93
2023-01-12T14:34:35.054Z,6.86
2023-01-12T14:37:07.867Z,6.89
2023-01-12T14:39:41.442Z,6.91
2023-01-12T14:42:37.595Z,6.91
2023-01-12T14:45:45.028Z,6.94
2023-01-12T14:48:29.676Z,6.83
2023-01-12T14:51:26.095Z,6.83
2023-01-12T14:54:01.076Z,6.84
2023-01-12T14:56:39.073Z,6.85
2023-01-12T14:59:19.682Z,6.81
2023-01-12T15:01:46.483Z,6.80
2023-01-12T15:04:19.837Z,6.75
2023-01-12T15:06:47.182Z,6.72
2023-01-12T15:09:27.320Z,6.73
2023-01-12T15:11:54.258Z,6.68
2023-01-12T15:14:25.122Z,6.65
2023-01-12T15:17:11.541Z,6.72
2023-01-12T15:19:56.888Z,6.70
2023-01-12T15:22:46.878Z,6.69
2023-01-12T15:25:35.080Z,6.58
2023-01-12T15:28:06.724Z,6.59
2023-01-12T15:30:37.424Z,6.53
2023-01-12T15:33:05.624Z,6.50
2023-01-12T15:35:32.719Z,6.47
2023-01-12T15:37:59.582Z,6.33
2023-01-12T15:40:27.958Z,6.20
2023-01-12T15:42:54.726Z,6.15
2023-01-12T15:45:37.655Z,6.10
2023-01-12T15:48:05.437Z,6.11
2023-01-12T15:50:33.787Z,6.15
2023-01-12T15:53:01.555Z,6.11
2023-01-12T15:55:31.382Z,6.09
2023-01-12T15:57:58.071Z,6.12
2023-01-12T16:00:24.800Z,6.15
2023-01-12T16:02:52.794Z,6.07
2023-01-12T16:05:22.332Z,6.07
2023-01-12T16:07:49.720Z,6.03
2023-01-12T16:10:17.119Z,5.98
2023-01-12T16:12:44.462Z,5.93
2023-01-12T16:15:22.768Z,5.96
2023-01-12T16:17:50.483Z,5.95
2023-01-12T16:20:19.827Z,5.96
2023-01-12T16:22:47.246Z,5.92
2023-01-12T16:25:14.752Z,5.88
2023-01-12T16:27:41.610Z,5.83
2023-01-12T16:30:12.691Z,5.83
2023-01-12T16:32:39.384Z,5.82
2023-01-12T16:35:06.049Z,5.73
2023-01-12T16:37:33.386Z,5.71
2023-01-12T16:40:00.956Z,5.71
2023-01-12T16:42:28.009Z,5.71
2023-01-12T16:44:54.679Z,5.74
2023-01-12T16:47:21.479Z,5.70
2023-01-12T16:49:50.045Z,5.73
2023-01-12T16:52:18.767Z,5.74
2023-01-12T16:54:45.681Z,5.78
2023-01-12T16:57:14.476Z,5.73
2023-01-12T16:59:41.782Z,5.64
2023-01-12T17:02:17.059Z,5.64
2023-01-12T17:04:44.929Z,5.65
2023-01-12T17:07:12.044Z,5.61
2023-01-12T17:09:39.814Z,5.59
2023-01-12T17:12:07.550Z,5.54
2023-01-12T17:14:35.069Z,5.47
2023-01-12T17:17:05.887Z,5.51
2023-01-12T17:19:36.548Z,5.47
2023-01-12T17:22:06.782Z,5.44
2023-01-12T17:24:35.582Z,5.42
2023-01-12T17:27:02.654Z,5.46
2023-01-12T17:29:29.481Z,5.48
2023-01-12T17:32:03.732Z,5.48
2023-01-12T17:34:33.484Z,5.48
2023-01-12T17:37:04.100Z,5.44
2023-01-12T17:39:31.237Z,5.53
2023-01-12T17:42:16.287Z,5.53
2023-01-12T17:44:42.963Z,5.51
2023-01-12T17:47:10.184Z,5.48
2023-01-12T17:49:37.112Z,5.52
2023-01-12T17:52:04.025Z,5.57
2023-01-12T17:54:30.687Z,5.55
2023-01-12T17:56:57.378Z,5.61
2023-01-12T17:59:24.332Z,5.58
2023-01-12T18:01:51.414Z,5.58
2023-01-12T18:04:18.671Z,5.59
2023-01-12T18:06:46.211Z,5.57
2023-01-12T18:09:13.810Z,5.56
2023-01-12T18:11:40.888Z,5.51
2023-01-12T18:14:08.017Z,5.53
2023-01-12T18:16:35.179Z,5.57
2023-01-12T18:19:06.818Z,5.59
2023-01-12T18:21:34.236Z,5.60
2023-01-12T18:24:01.689Z,5.60
2023-01-12T18:26:30.896Z,5.65
2023-01-12T18:28:58.690Z,5.64
2023-01-12T18:31:33.625Z,5.63
2023-01-12T18:34:05.278Z,5.60
2023-01-12T18:36:39.971Z,5.64
2023-01-12T18:39:09.011Z,5.67
2023-01-12T18:41:55.359Z,5.62
2023-01-12T18:44:23.168Z,5.57
2023-01-12T18:47:08.331Z,5.53
2023-01-12T18:49:36.302Z,5.41
2023-01-12T18:52:22.855Z,5.39
2023-01-12T18:54:53.284Z,5.37
2023-01-12T18:57:23.186Z,5.34
2023-01-12T18:59:56.547Z,5.33
2023-01-12T19:02:23.318Z,5.32
2023-01-12T19:04:50.461Z,5.39
2023-01-12T19:07:40.392Z,5.43
2023-01-12T19:10:07.536Z,5.43
2023-01-12T19:12:34.166Z,5.45
2023-01-12T19:15:19.670Z,5.50
2023-01-12T19:17:46.439Z,5.42
2023-01-12T19:20:17.324Z,5.45
2023-01-12T19:23:02.533Z,5.50
2023-01-12T19:25:47.971Z,5.46
2023-01-12T19:28:39.663Z,5.47
2023-01-12T19:31:11.903Z,5.45
2023-01-12T19:33:39.251Z,5.40
2023-01-12T19:36:09.401Z,5.43
2023-01-12T19:38:36.452Z,5.40
2023-01-12T19:41:34.343Z,5.40
2023-01-12T19:44:05.204Z,5.44
2023-01-12T19:46:33.153Z,5.41
2023-01-12T19:49:00.098Z,5.44
2023-01-12T19:51:26.728Z,5.46
2023-01-12T19:53:53.371Z,5.46
2023-01-12T19:56:20.044Z,5.48
2023-01-12T19:58:46.689Z,5.47
2023-01-12T20:01:23.341Z,5.44
2023-01-12T20:03:50.775Z,5.48
2023-01-12T20:06:17.606Z,5.42
2023-01-12T20:08:44.332Z,5.39
2023-01-12T20:11:10.987Z,5.39
2023-01-12T20:13:37.631Z,5.45
2023-01-12T20:16:09.263Z,5.38
2023-01-12T20:18:36.254Z,5.41
2023-01-12T20:21:08.366Z,5.38
2023-01-12T20:23:35.066Z,5.30
2023-01-12T20:26:04.832Z,5.36
2023-01-12T20:28:31.504Z,5.29
2023-01-12T20:30:59.474Z,5.23
2023-01-12T20:33:26.353Z,5.21
2023-01-12T20:35:53.638Z,5.23
2023-01-12T20:38:22.659Z,5.18
2023-01-12T20:40:49.675Z,5.14
2023-01-12T20:43:16.492Z,5.16
2023-01-12T20:45:44.216Z,5.16
2023-01-12T20:48:13.629Z,5.09
2023-01-12T20:50:47.386Z,5.12
2023-01-12T20:53:15.595Z,5.13
2023-01-12T20:55:49.126Z,5.07
2023-01-12T20:58:16.099Z,4.95
2023-01-12T21:00:43.268Z,4.91
2023-01-12T21:03:10.106Z,4.96
2023-01-12T21:05:41.959Z,4.95
2023-01-12T21:08:08.820Z,4.94
2023-01-12T21:10:39.423Z,4.97
2023-01-12T21:13:07.110Z,5.04
2023-01-12T21:15:33.916Z,5.09
2023-01-12T21:18:00.524Z,5.07
2023-01-12T21:20:27.182Z,5.07
2023-01-12T21:22:53.989Z,5.01
2023-01-12T21:25:20.650Z,5.17
2023-01-12T21:27:47.298Z,5.14
2023-01-12T21:30:14.115Z,5.11
2023-01-12T21:32:43.423Z,5.06
2023-01-12T21:35:10.207Z,5.08
2023-01-12T21:37:36.873Z,5.11
2023-01-12T21:40:04.002Z,5.11
2023-01-12T21:42:49.437Z,4.99
2023-01-12T21:45:16.094Z,4.96
2023-01-12T21:47:45.856Z,4.99
2023-01-12T21:50:13.067Z,5.02
2023-01-12T21:52:41.474Z,4.94
2023-01-12T21:55:11.292Z,4.86
2023-01-12T21:57:38.106Z,4.80
2023-01-12T22:00:05.873Z,4.83
2023-01-12T22:02:34.279Z,4.91
2023-01-12T22:05:00.932Z,4.95
2023-01-12T22:07:27.963Z,4.99
2023-01-12T22:09:55.061Z,5.05
2023-01-12T22:12:21.748Z,5.03
2023-01-12T22:14:48.353Z,4.99
2023-01-12T22:17:14.993Z,5.03
2023-01-12T22:19:41.644Z,5.03
2023-01-12T22:22:08.255Z,5.11
2023-01-12T22:24:34.855Z,5.13
2023-01-12T22:27:03.421Z,5.14
2023-01-12T22:29:30.066Z,5.12
2023-01-12T22:31:56.700Z,5.13
2023-01-12T22:34:25.059Z,5.11
2023-01-12T22:36:51.668Z,5.16
2023-01-12T22:39:18.298Z,5.20
2023-01-12T22:41:44.950Z,5.16
2023-01-12T22:44:11.720Z,5.19
2023-01-12T22:46:38.523Z,5.15
2023-01-12T22:49:05.483Z,5.16
2023-01-12T22:51:32.239Z,5.19
2023-01-12T22:53:59.041Z,5.14
2023-01-12T22:56:26.237Z,5.15
2023-01-12T22:58:54.735Z,5.17
2023-01-12T23:01:22.734Z,5.20
2023-01-12T23:03:54.241Z,5.18
2023-01-12T23:06:22.344Z,5.17
2023-01-12T23:08:49.630Z,5.20
2023-01-12T23:11:24.318Z,5.21
2023-01-12T23:13:51.759Z,5.21
2023-01-12T23:16:19.654Z,5.21
2023-01-12T23:18:47.412Z,5.13
2023-01-12T23:21:16.929Z,5.17
2023-01-12T23:23:52.454Z,5.12
2023-01-12T23:26:22.672Z,5.13
2023-01-12T23:28:52.123Z,5.11
2023-01-12T23:31:24.484Z,5.16
2023-01-12T23:33:51.733Z,5.18
2023-01-12T23:36:21.222Z,5.22
2023-01-12T23:38:51.866Z,5.17
2023-01-12T23:41:23.380Z,5.19
2023-01-12T23:43:51.831Z,5.20
2023-01-12T23:46:23.519Z,5.21
2023-01-12T23:48:51.457Z,5.22
2023-01-12T23:51:18.108Z,5.24
2023-01-12T23:53:47.497Z,5.24
2023-01-12T23:56:15.816Z,5.24
2023-01-12T23:58:43.410Z,5.24
